createdAt,value
2019-05-30T00:01:04.142Z,12.80
2019-05-30T00:03:34.602Z,12.70
2019-05-30T00:06:05.080Z,12.70
2019-05-30T00:08:35.577Z,12.60
2019-05-30T00:11:05.895Z,12.60
2019-05-30T00:13:36.298Z,12.40
2019-05-30T00:16:06.764Z,12.40
2019-05-30T00:18:37.616Z,12.40
2019-05-30T00:21:08.313Z,12.40
2019-05-30T00:23:38.941Z,12.30
2019-05-30T00:26:09.322Z,12.40
2019-05-30T00:28:39.819Z,12.30
2019-05-30T00:31:13.419Z,12.20
2019-05-30T00:33:43.716Z,12.20
2019-05-30T00:36:16.424Z,12.20
2019-05-30T00:38:46.952Z,12.10
2019-05-30T00:41:19.743Z,12.00
2019-05-30T00:43:50.294Z,12.20
2019-05-30T00:46:20.914Z,12.10
2019-05-30T00:48:51.422Z,11.90
2019-05-30T00:51:22.931Z,11.90
2019-05-30T00:53:53.496Z,12.00
2019-05-30T00:56:24.049Z,11.90
2019-05-30T00:58:54.941Z,11.90
2019-05-30T01:01:25.356Z,11.90
2019-05-30T01:03:56.737Z,11.90
2019-05-30T01:06:27.253Z,11.80
2019-05-30T01:08:59.246Z,11.80
2019-05-30T01:11:29.674Z,11.90
2019-05-30T01:14:01.099Z,11.70
2019-05-30T01:16:31.605Z,11.50
2019-05-30T01:19:03.207Z,11.40
2019-05-30T01:21:33.858Z,11.30
2019-05-30T01:24:05.655Z,11.30
2019-05-30T01:26:36.444Z,11.40
2019-05-30T01:29:07.767Z,11.20
2019-05-30T01:31:38.284Z,11.30
2019-05-30T01:34:08.779Z,11.30
2019-05-30T01:36:41.670Z,11.30
2019-05-30T01:39:12.417Z,11.30
2019-05-30T01:41:42.795Z,11.20
2019-05-30T01:44:13.359Z,11.00
2019-05-30T01:46:43.996Z,11.00
2019-05-30T01:49:14.622Z,11.00
2019-05-30T01:51:45.015Z,11.10
2019-05-30T01:54:15.449Z,11.10
2019-05-30T01:56:46.081Z,11.00
2019-05-30T01:59:16.450Z,11.10
2019-05-30T02:01:47.979Z,11.00
2019-05-30T02:04:18.324Z,10.90
2019-05-30T02:06:48.757Z,10.90
2019-05-30T02:09:19.163Z,10.90
2019-05-30T02:11:50.048Z,10.80
2019-05-30T02:14:20.534Z,10.90
2019-05-30T02:16:52.280Z,10.90
2019-05-30T02:19:22.553Z,11.00
2019-05-30T02:21:52.850Z,11.00
2019-05-30T02:24:26.845Z,11.10
2019-05-30T02:26:57.265Z,11.10
2019-05-30T02:29:27.578Z,11.10
2019-05-30T02:31:57.823Z,11.10
2019-05-30T02:34:28.124Z,11.10
2019-05-30T02:36:58.405Z,11.10
2019-05-30T02:39:28.701Z,11.10
2019-05-30T02:41:59.093Z,11.10
2019-05-30T02:44:29.324Z,11.20
2019-05-30T02:47:01.412Z,11.10
2019-05-30T02:49:31.893Z,11.20
2019-05-30T02:52:03.104Z,11.30
2019-05-30T02:54:34.444Z,11.40
2019-05-30T02:57:08.063Z,11.30
2019-05-30T02:59:39.915Z,11.30
2019-05-30T03:02:15.177Z,11.40
2019-05-30T03:04:42.945Z,11.40
2019-05-30T03:07:13.983Z,11.40
2019-05-30T03:09:44.536Z,11.40
2019-05-30T03:12:16.884Z,11.30
2019-05-30T03:14:47.809Z,11.40
2019-05-30T03:17:18.551Z,11.30
2019-05-30T03:19:49.539Z,11.30
2019-05-30T03:22:20.376Z,11.30
2019-05-30T03:24:51.757Z,11.30
2019-05-30T03:27:22.891Z,11.40
2019-05-30T03:29:54.150Z,11.40
2019-05-30T03:34:58.368Z,11.40
2019-05-30T03:37:30.712Z,11.40
2019-05-30T03:40:02.464Z,11.40
2019-05-30T03:42:35.841Z,11.40
2019-05-30T03:45:11.245Z,11.40
2019-05-30T03:47:44.434Z,11.40
2019-05-30T03:50:17.824Z,11.40
2019-05-30T03:52:49.756Z,11.50
2019-05-30T03:55:21.881Z,11.50
2019-05-30T03:58:00.869Z,11.50
2019-05-30T04:00:41.608Z,11.60
2019-05-30T04:03:21.349Z,11.60
2019-05-30T04:05:57.418Z,11.60
2019-05-30T04:08:30.457Z,11.70
2019-05-30T04:11:04.345Z,11.70
2019-05-30T04:13:49.329Z,11.70
2019-05-30T04:16:20.459Z,11.80
2019-05-30T04:18:53.470Z,11.90
2019-05-30T04:21:24.102Z,11.90
2019-05-30T04:23:54.772Z,12.10
2019-05-30T04:26:25.678Z,12.10
2019-05-30T04:28:57.000Z,12.20
2019-05-30T04:31:28.079Z,12.30
2019-05-30T04:34:00.142Z,12.40
2019-05-30T04:36:31.417Z,12.50
2019-05-30T04:39:02.413Z,12.60
2019-05-30T04:41:35.018Z,12.60
2019-05-30T04:44:09.591Z,12.80
2019-05-30T04:46:41.977Z,12.80
2019-05-30T04:49:14.440Z,13.00
2019-05-30T04:51:45.621Z,13.10
2019-05-30T04:54:18.470Z,13.20
2019-05-30T04:56:49.545Z,13.20
2019-05-30T04:59:21.921Z,13.30
2019-05-30T05:01:53.513Z,13.40
2019-05-30T05:04:24.708Z,13.50
2019-05-30T05:06:55.710Z,13.70
2019-05-30T05:09:27.135Z,13.70
2019-05-30T05:11:58.185Z,13.80
2019-05-30T05:14:29.006Z,13.90
2019-05-30T05:17:00.104Z,14.00
2019-05-30T05:19:30.980Z,14.10
2019-05-30T05:22:02.116Z,14.10
2019-05-30T05:24:33.384Z,14.30
2019-05-30T05:27:04.471Z,14.40
2019-05-30T05:29:37.056Z,14.40
2019-05-30T05:32:08.130Z,14.30
2019-05-30T05:34:39.898Z,14.40
2019-05-30T05:37:11.223Z,14.50
2019-05-30T05:39:42.250Z,14.40
2019-05-30T05:42:16.041Z,14.50
2019-05-30T05:44:47.252Z,14.60
2019-05-30T05:47:21.089Z,14.60
2019-05-30T05:49:52.690Z,14.60
2019-05-30T05:52:26.373Z,14.70
2019-05-30T05:55:00.303Z,14.70
2019-05-30T05:57:31.718Z,14.80
2019-05-30T06:00:02.794Z,14.80
2019-05-30T06:02:33.599Z,14.80
2019-05-30T06:05:05.113Z,14.80
2019-05-30T06:07:36.098Z,14.80
2019-05-30T06:10:07.585Z,14.90
2019-05-30T06:12:38.627Z,14.90
2019-05-30T06:15:10.136Z,15.00
2019-05-30T06:17:41.366Z,14.90
2019-05-30T06:20:12.685Z,15.10
2019-05-30T06:22:43.992Z,15.20
2019-05-30T06:25:15.029Z,15.20
2019-05-30T06:27:45.688Z,15.20
2019-05-30T06:30:18.725Z,15.40
2019-05-30T06:32:49.988Z,15.40
2019-05-30T06:35:21.446Z,15.50
2019-05-30T06:37:52.372Z,15.40
2019-05-30T06:40:23.760Z,15.40
2019-05-30T06:42:55.114Z,15.50
2019-05-30T06:45:28.521Z,15.50
2019-05-30T06:47:59.616Z,15.60
2019-05-30T06:50:30.990Z,15.80
2019-05-30T06:53:02.108Z,15.80
2019-05-30T06:55:33.038Z,16.00
2019-05-30T06:58:07.002Z,16.10
2019-05-30T07:00:38.536Z,16.20
2019-05-30T07:03:09.401Z,16.40
2019-05-30T07:05:40.985Z,16.70
2019-05-30T07:08:12.803Z,16.90
2019-05-30T07:10:46.719Z,17.00
2019-05-30T07:13:19.115Z,17.00
2019-05-30T07:15:53.295Z,16.90
2019-05-30T07:18:25.328Z,16.90
2019-05-30T07:20:56.906Z,17.00
2019-05-30T07:23:28.017Z,17.10
2019-05-30T07:25:59.129Z,17.30
2019-05-30T07:28:35.116Z,17.20
2019-05-30T07:31:06.970Z,17.30
2019-05-30T07:33:39.246Z,17.20
2019-05-30T07:36:11.041Z,17.30
2019-05-30T07:38:42.134Z,17.40
2019-05-30T07:41:13.542Z,17.40
2019-05-30T07:43:45.054Z,17.40
2019-05-30T07:46:16.378Z,17.50
2019-05-30T07:48:47.338Z,17.60
2019-05-30T07:51:18.474Z,17.60
2019-05-30T07:53:51.041Z,17.70
2019-05-30T07:56:22.367Z,17.70
2019-05-30T07:58:53.486Z,17.70
2019-05-30T08:01:24.578Z,17.70
2019-05-30T08:03:55.490Z,17.60
2019-05-30T08:06:27.450Z,17.70
2019-05-30T08:08:58.656Z,17.60
2019-05-30T08:11:30.813Z,17.60
2019-05-30T08:14:01.873Z,17.60
2019-05-30T08:16:33.324Z,17.70
2019-05-30T08:19:04.438Z,17.80
2019-05-30T08:21:36.291Z,17.70
2019-05-30T08:24:13.572Z,17.80
2019-05-30T08:26:44.425Z,17.80
2019-05-30T08:29:17.721Z,17.90
2019-05-30T08:31:48.185Z,18.00
2019-05-30T08:34:20.849Z,17.90
2019-05-30T08:36:56.025Z,18.00
2019-05-30T08:39:26.992Z,17.90
2019-05-30T08:41:57.923Z,18.00
2019-05-30T08:44:29.418Z,17.90
2019-05-30T08:47:00.395Z,18.00
2019-05-30T08:49:31.846Z,18.00
2019-05-30T08:52:05.179Z,18.20
2019-05-30T08:54:36.413Z,18.30
2019-05-30T08:57:07.825Z,18.40
2019-05-30T08:59:38.685Z,18.50
2019-05-30T09:02:10.188Z,18.30
2019-05-30T09:04:42.000Z,18.50
2019-05-30T09:07:13.561Z,18.50
2019-05-30T09:09:44.490Z,18.70
2019-05-30T09:12:15.347Z,18.80
2019-05-30T09:14:46.949Z,18.80
2019-05-30T09:17:18.262Z,18.70
2019-05-30T09:19:51.870Z,18.70
2019-05-30T09:22:22.691Z,18.70
2019-05-30T09:24:53.431Z,18.70
2019-05-30T09:27:24.265Z,18.70
2019-05-30T09:29:55.130Z,18.70
2019-05-30T09:32:26.137Z,18.90
2019-05-30T09:35:00.623Z,18.90
2019-05-30T09:37:31.343Z,19.00
2019-05-30T09:40:02.445Z,19.00
2019-05-30T09:42:34.941Z,19.00
2019-05-30T09:45:08.204Z,19.00
2019-05-30T09:47:41.314Z,19.10
2019-05-30T09:50:12.415Z,19.30
2019-05-30T09:52:43.557Z,19.40
2019-05-30T09:55:18.340Z,19.30
2019-05-30T09:57:50.087Z,19.70
2019-05-30T10:00:22.842Z,19.70
2019-05-30T10:02:53.679Z,19.80
2019-05-30T10:05:25.051Z,19.90
2019-05-30T10:07:56.075Z,19.80
2019-05-30T10:10:30.100Z,19.90
2019-05-30T10:13:00.783Z,19.80
2019-05-30T10:15:34.271Z,19.80
2019-05-30T10:18:07.492Z,19.80
2019-05-30T10:20:38.699Z,20.00
2019-05-30T10:23:10.041Z,20.00
2019-05-30T10:25:40.671Z,19.90
2019-05-30T10:28:11.277Z,19.90
2019-05-30T10:30:45.381Z,19.90
2019-05-30T10:33:18.553Z,20.00
2019-05-30T10:35:51.290Z,20.00
2019-05-30T10:38:22.589Z,20.00
2019-05-30T10:40:54.087Z,20.00
2019-05-30T10:43:26.972Z,19.90
2019-05-30T10:45:58.769Z,19.70
2019-05-30T10:48:30.009Z,19.70
2019-05-30T10:51:00.741Z,19.50
2019-05-30T10:53:31.152Z,19.40
2019-05-30T10:56:01.977Z,19.40
2019-05-30T10:58:33.071Z,19.70
2019-05-30T11:01:05.021Z,19.70
2019-05-30T11:03:36.844Z,19.70
2019-05-30T11:06:34.705Z,19.70
2019-05-30T11:09:07.899Z,19.60
2019-05-30T11:11:38.890Z,19.70
2019-05-30T11:14:10.150Z,19.70
2019-05-30T11:16:47.063Z,19.70
2019-05-30T11:19:18.666Z,19.70
2019-05-30T11:21:49.749Z,19.70
2019-05-30T11:24:21.050Z,19.60
2019-05-30T11:26:53.834Z,19.50
2019-05-30T11:29:25.013Z,19.60
2019-05-30T11:31:56.945Z,19.50
2019-05-30T11:34:27.960Z,19.60
2019-05-30T11:37:00.893Z,19.60
2019-05-30T11:39:32.323Z,19.60
2019-05-30T11:42:04.923Z,19.60
2019-05-30T11:44:36.022Z,19.70
2019-05-30T11:47:06.955Z,19.70
2019-05-30T11:49:37.952Z,19.80
2019-05-30T11:52:08.836Z,19.80
2019-05-30T11:54:40.019Z,19.70
2019-05-30T11:57:11.230Z,19.80
2019-05-30T11:59:41.913Z,19.80
2019-05-30T12:02:13.515Z,19.70
2019-05-30T12:04:45.264Z,19.70
2019-05-30T12:07:16.107Z,19.80
2019-05-30T12:09:49.047Z,19.80
2019-05-30T12:12:22.467Z,20.10
2019-05-30T12:14:55.473Z,19.80
2019-05-30T12:17:26.123Z,20.00
2019-05-30T12:19:57.604Z,20.10
2019-05-30T12:22:28.319Z,20.10
2019-05-30T12:25:02.586Z,20.10
2019-05-30T12:27:33.565Z,20.20
2019-05-30T12:30:04.922Z,20.20
2019-05-30T12:32:35.761Z,20.10
2019-05-30T12:35:06.685Z,20.20
2019-05-30T12:37:53.536Z,20.10
2019-05-30T12:40:10.979Z,19.90
2019-05-30T12:42:41.748Z,20.00
2019-05-30T12:45:13.043Z,19.90
2019-05-30T12:47:44.879Z,20.00
2019-05-30T12:50:16.761Z,20.10
2019-05-30T12:52:48.131Z,20.10
2019-05-30T12:55:18.678Z,20.00
2019-05-30T12:57:50.531Z,20.10
2019-05-30T13:00:26.794Z,20.30
2019-05-30T13:02:58.751Z,20.20
2019-05-30T13:05:30.010Z,20.30
2019-05-30T13:08:14.312Z,20.40
2019-05-30T13:10:35.958Z,20.50
2019-05-30T13:13:08.949Z,20.40
2019-05-30T13:15:40.077Z,20.40
2019-05-30T13:18:10.907Z,20.30
2019-05-30T13:20:41.562Z,20.40
2019-05-30T13:23:12.642Z,20.40
2019-05-30T13:25:43.426Z,20.40
2019-05-30T13:28:14.351Z,20.30
2019-05-30T13:30:45.208Z,20.40
2019-05-30T13:33:16.187Z,20.40
2019-05-30T13:35:47.353Z,20.50
2019-05-30T13:38:26.287Z,20.30
2019-05-30T13:40:54.907Z,20.20
2019-05-30T13:43:27.909Z,20.20
2019-05-30T13:45:58.165Z,20.30
2019-05-30T13:48:31.770Z,20.20
2019-05-30T13:51:02.790Z,20.30
2019-05-30T13:53:33.820Z,20.10
2019-05-30T13:56:05.484Z,20.20
2019-05-30T13:58:39.657Z,20.20
2019-05-30T14:01:13.995Z,20.20
2019-05-30T14:03:44.388Z,20.30
2019-05-30T14:06:18.235Z,20.40
2019-05-30T14:08:50.832Z,20.40
2019-05-30T14:11:21.946Z,20.20
2019-05-30T14:13:52.703Z,20.20
2019-05-30T14:16:23.750Z,20.20
2019-05-30T14:18:54.625Z,20.30
2019-05-30T14:21:27.715Z,20.40
2019-05-30T14:23:59.204Z,20.30
2019-05-30T14:26:30.334Z,20.30
2019-05-30T14:29:02.284Z,20.40
2019-05-30T14:31:33.975Z,20.50
2019-05-30T14:34:06.000Z,20.50
2019-05-30T14:36:36.727Z,20.50
2019-05-30T14:39:09.073Z,20.30
2019-05-30T14:41:40.143Z,20.20
2019-05-30T14:44:11.240Z,20.30
2019-05-30T14:46:42.083Z,20.10
2019-05-30T14:49:13.022Z,20.00
2019-05-30T14:51:43.866Z,20.00
2019-05-30T14:54:14.993Z,20.00
2019-05-30T14:56:46.475Z,20.10
2019-05-30T14:59:17.549Z,20.10
2019-05-30T15:01:48.895Z,20.10
2019-05-30T15:04:19.902Z,20.00
2019-05-30T15:06:51.183Z,20.00
2019-05-30T15:09:26.050Z,20.00
2019-05-30T15:11:54.599Z,19.90
2019-05-30T15:14:25.822Z,20.10
2019-05-30T15:16:56.938Z,20.10
2019-05-30T15:19:28.004Z,20.10
2019-05-30T15:21:58.634Z,20.00
2019-05-30T15:24:31.143Z,20.00
2019-05-30T15:27:01.920Z,20.00
2019-05-30T15:29:32.726Z,20.00
2019-05-30T15:32:06.171Z,19.90
2019-05-30T15:34:37.606Z,20.00
2019-05-30T15:37:12.794Z,20.00
2019-05-30T15:39:44.174Z,19.90
2019-05-30T15:42:15.429Z,20.00
2019-05-30T15:44:48.472Z,20.00
2019-05-30T15:47:19.235Z,20.00
2019-05-30T15:49:52.138Z,20.00
2019-05-30T15:52:24.474Z,20.10
2019-05-30T15:54:55.230Z,20.20
2019-05-30T15:57:26.215Z,20.20
2019-05-30T15:59:57.026Z,20.30
2019-05-30T16:02:27.773Z,20.40
2019-05-30T16:04:58.821Z,20.50
2019-05-30T16:07:29.933Z,20.50
2019-05-30T16:10:01.189Z,20.60
2019-05-30T16:12:32.696Z,20.60
2019-05-30T16:15:03.690Z,20.70
2019-05-30T16:17:34.494Z,20.60
2019-05-30T16:20:05.792Z,20.60
2019-05-30T16:22:36.721Z,20.70
2019-05-30T16:25:08.777Z,20.60
2019-05-30T16:27:40.021Z,20.60
2019-05-30T16:30:18.302Z,20.60
2019-05-30T16:32:47.616Z,20.40
2019-05-30T16:35:18.402Z,20.50
2019-05-30T16:37:49.444Z,20.50
2019-05-30T16:40:20.381Z,20.40
2019-05-30T16:42:51.309Z,20.30
2019-05-30T16:45:25.186Z,20.40
2019-05-30T16:47:55.000Z,20.40
2019-05-30T16:50:27.046Z,20.40
2019-05-30T16:52:58.690Z,20.40
2019-05-30T16:55:29.746Z,20.40
2019-05-30T16:58:00.885Z,20.50
2019-05-30T17:00:31.682Z,20.60
2019-05-30T17:03:02.483Z,20.60
2019-05-30T17:05:34.583Z,20.60
2019-05-30T17:08:05.904Z,20.60
2019-05-30T17:10:37.367Z,20.50
2019-05-30T17:13:08.705Z,20.70
2019-05-30T17:15:40.235Z,20.80
2019-05-30T17:18:12.708Z,20.60
2019-05-30T17:20:43.393Z,20.70
2019-05-30T17:23:16.720Z,20.70
2019-05-30T17:25:48.115Z,20.70
2019-05-30T17:28:20.216Z,20.70
2019-05-30T17:30:52.853Z,20.70
2019-05-30T17:33:25.526Z,20.70
2019-05-30T17:35:56.523Z,20.70
2019-05-30T17:38:39.863Z,20.70
2019-05-30T17:41:10.903Z,20.80
2019-05-30T17:43:43.112Z,20.80
2019-05-30T17:46:14.157Z,20.80
2019-05-30T17:48:45.385Z,20.70
2019-05-30T17:51:16.835Z,20.70
2019-05-30T17:53:48.495Z,20.60
2019-05-30T17:56:20.034Z,20.60
2019-05-30T17:58:54.270Z,20.70
2019-05-30T18:01:26.116Z,20.60
2019-05-30T18:03:57.386Z,20.70
2019-05-30T18:06:28.618Z,20.70
2019-05-30T18:08:59.967Z,20.50
2019-05-30T18:11:31.317Z,20.50
2019-05-30T18:14:02.511Z,20.60
2019-05-30T18:16:35.419Z,20.60
2019-05-30T18:19:09.605Z,20.60
2019-05-30T18:21:40.202Z,20.60
2019-05-30T18:24:15.809Z,20.50
2019-05-30T18:26:50.172Z,20.60
2019-05-30T18:29:21.772Z,20.50
2019-05-30T18:31:53.024Z,20.50
2019-05-30T18:34:24.692Z,20.50
2019-05-30T18:36:55.674Z,20.40
2019-05-30T18:39:26.735Z,20.50
2019-05-30T18:41:57.884Z,20.40
2019-05-30T18:44:31.583Z,20.40
2019-05-30T18:47:04.635Z,20.40
2019-05-30T18:49:35.478Z,20.40
2019-05-30T18:52:07.709Z,20.30
2019-05-30T18:54:40.867Z,20.50
2019-05-30T18:57:11.863Z,20.40
2019-05-30T18:59:42.951Z,20.50
2019-05-30T19:02:18.317Z,20.50
2019-05-30T19:04:48.383Z,20.40
2019-05-30T19:07:18.797Z,20.30
2019-05-30T19:09:55.333Z,20.50
2019-05-30T19:12:28.156Z,20.40
2019-05-30T19:14:58.695Z,20.50
2019-05-30T19:17:29.593Z,20.50
2019-05-30T19:20:00.255Z,20.40
2019-05-30T19:22:30.582Z,20.40
2019-05-30T19:25:01.103Z,20.40
2019-05-30T19:27:33.887Z,20.30
2019-05-30T19:30:04.120Z,20.40
2019-05-30T19:32:35.072Z,20.40
2019-05-30T19:35:06.020Z,20.40
2019-05-30T19:37:38.071Z,20.50
2019-05-30T19:40:09.218Z,20.30
2019-05-30T19:42:39.490Z,20.40
2019-05-30T19:45:14.191Z,20.40
2019-05-30T19:47:45.644Z,20.40
2019-05-30T19:50:16.522Z,20.30
2019-05-30T19:52:47.089Z,20.20
2019-05-30T19:55:21.223Z,20.20
2019-05-30T19:57:52.416Z,20.20
2019-05-30T20:00:23.117Z,20.10
2019-05-30T20:02:53.678Z,19.90
2019-05-30T20:05:24.278Z,20.00
2019-05-30T20:07:54.783Z,20.00
2019-05-30T20:10:27.153Z,20.10
2019-05-30T20:12:57.783Z,20.10
2019-05-30T20:15:28.467Z,20.00
2019-05-30T20:17:59.259Z,20.10
2019-05-30T20:20:44.543Z,20.20
2019-05-30T20:23:03.228Z,20.20
2019-05-30T20:25:34.464Z,20.20
2019-05-30T20:28:05.779Z,20.20
2019-05-30T20:30:37.101Z,20.10
2019-05-30T20:33:07.909Z,20.20
2019-05-30T20:35:42.168Z,20.10
2019-05-30T20:38:13.331Z,20.00
2019-05-30T20:40:45.029Z,20.00
2019-05-30T20:43:19.118Z,19.90
2019-05-30T20:45:51.598Z,19.80
2019-05-30T20:48:43.628Z,19.70
2019-05-30T20:51:21.322Z,19.70
2019-05-30T20:53:49.811Z,19.50
2019-05-30T20:56:22.360Z,19.50
2019-05-30T20:58:53.319Z,19.50
2019-05-30T21:01:26.817Z,19.50
2019-05-30T21:03:59.394Z,19.40
2019-05-30T21:06:30.718Z,19.30
2019-05-30T21:09:03.233Z,19.30
2019-05-30T21:11:36.072Z,19.30
2019-05-30T21:14:07.365Z,19.30
2019-05-30T21:16:40.066Z,19.30
2019-05-30T21:19:12.989Z,19.00
2019-05-30T21:21:44.260Z,19.10
2019-05-30T21:24:14.970Z,19.10
2019-05-30T21:26:46.889Z,19.10
2019-05-30T21:29:17.535Z,19.00
2019-05-30T21:31:48.291Z,19.10
2019-05-30T21:34:19.123Z,18.90
2019-05-30T21:36:49.925Z,18.80
2019-05-30T21:39:20.457Z,18.80
2019-05-30T21:41:51.201Z,18.70
2019-05-30T21:44:21.836Z,18.80
2019-05-30T21:46:52.489Z,18.70
2019-05-30T21:49:25.175Z,18.70
2019-05-30T21:51:56.127Z,18.70
2019-05-30T21:54:28.450Z,18.60
2019-05-30T21:56:59.755Z,18.40
2019-05-30T21:59:30.500Z,18.50
2019-05-30T22:02:03.053Z,18.50
2019-05-30T22:04:35.646Z,18.50
2019-05-30T22:07:08.324Z,18.40
2019-05-30T22:09:38.768Z,18.40
2019-05-30T22:12:09.257Z,18.40
2019-05-30T22:14:41.646Z,18.40
2019-05-30T22:17:12.446Z,18.30
2019-05-30T22:19:43.807Z,18.30
2019-05-30T22:22:14.908Z,18.30
2019-05-30T22:24:46.188Z,18.40
2019-05-30T22:27:16.953Z,18.40
2019-05-30T22:29:48.478Z,18.40
2019-05-30T22:32:19.638Z,18.40
2019-05-30T22:34:50.845Z,18.50
2019-05-30T22:37:21.511Z,18.50
2019-05-30T22:39:53.052Z,18.50
2019-05-30T22:42:24.113Z,18.30
2019-05-30T22:44:56.578Z,18.40
2019-05-30T22:47:27.496Z,18.40
2019-05-30T22:49:58.526Z,18.50
2019-05-30T22:52:29.274Z,18.40
2019-05-30T22:54:59.925Z,18.30
2019-05-30T22:57:30.425Z,18.30
2019-05-30T23:00:01.102Z,18.40
2019-05-30T23:02:31.781Z,18.40
2019-05-30T23:05:02.963Z,18.30
2019-05-30T23:07:33.521Z,18.30
2019-05-30T23:10:04.705Z,18.30
2019-05-30T23:12:35.377Z,18.20
2019-05-30T23:15:06.431Z,18.20
2019-05-30T23:17:37.416Z,18.20
2019-05-30T23:20:08.566Z,18.20
2019-05-30T23:22:40.051Z,18.30
2019-05-30T23:25:15.054Z,18.40
2019-05-30T23:27:45.542Z,18.40
2019-05-30T23:30:16.372Z,18.30
2019-05-30T23:32:50.303Z,18.30
2019-05-30T23:35:21.338Z,18.40
2019-05-30T23:37:53.223Z,18.50
2019-05-30T23:40:24.305Z,18.50
2019-05-30T23:42:59.947Z,18.50
2019-05-30T23:45:30.696Z,18.50
2019-05-30T23:48:01.393Z,18.50
2019-05-30T23:50:33.759Z,18.50
2019-05-30T23:53:08.198Z,18.40
2019-05-30T23:55:39.691Z,18.40
2019-05-30T23:58:10.382Z,18.40
